sensor_id;sensor_type;location;lat;lon;timestamp;P1;durP1;ratioP1;P2;durP2;ratioP2
69636;SDS011;56860;51.144;16.954;2024-03-08T00:00:58;23.5;;;43.0;;
69636;SDS011;56860;51.144;16.954;2024-03-08T00:01:58;22.8;;;42.3;;
69636;SDS011;56860;51.144;16.954;2024-03-08T00:02:58;22.8;;;42.3;;
69636;SDS011;56860;51.144;16.954;2024-03-08T00:03:58;23.3;;;42.1;;
69636;SDS011;56860;51.144;16.954;2024-03-08T00:04:58;23.0;;;41.1;;
69636;SDS011;56860;51.144;16.954;2024-03-08T00:05:58;23.0;;;41.1;;
69636;SDS011;56860;51.144;16.954;2024-03-08T00:06:58;19.5;;;30.7;;
69636;SDS011;56860;51.144;16.954;2024-03-08T00:07:58;22.7;;;41.9;;
69636;SDS011;56860;51.144;16.954;2024-03-08T00:08:58;22.7;;;41.9;;
69636;SDS011;56860;51.144;16.954;2024-03-08T00:09:58;22.7;;;41.9;;
69636;SDS011;56860;51.144;16.954;2024-03-08T00:10:58;21.1;;;39.5;;
69636;SDS011;56860;51.144;16.954;2024-03-08T00:11:58;21.1;;;39.5;;
69636;SDS011;56860;51.144;16.954;2024-03-08T00:12:58;21.1;;;39.5;;
69636;SDS011;56860;51.144;16.954;2024-03-08T00:13:58;22.3;;;37.5;;
69636;SDS011;56860;51.144;16.954;2024-03-08T00:14:58;22.3;;;37.5;;
69636;SDS011;56860;51.144;16.954;2024-03-08T00:15:58;22.3;;;37.5;;
69636;SDS011;56860;51.144;16.954;2024-03-08T00:16:58;23.3;;;41.9;;
69636;SDS011;56860;51.144;16.954;2024-03-08T00:17:58;23.3;;;41.9;;
69636;SDS011;56860;51.144;16.954;2024-03-08T00:18:58;23.3;;;41.9;;
69636;SDS011;56860;51.144;16.954;2024-03-08T00:19:58;23.5;;;40.6;;
69636;SDS011;56860;51.144;16.954;2024-03-08T00:20:58;23.5;;;40.6;;
69636;SDS011;56860;51.144;16.954;2024-03-08T00:21:58;23.5;;;40.6;;
69636;SDS011;56860;51.144;16.954;2024-03-08T00:22:58;22.0;;;39.6;;
69636;SDS011;56860;51.144;16.954;2024-03-08T00:23:58;22.0;;;39.6;;
69636;SDS011;56860;51.144;16.954;2024-03-08T00:24:58;22.0;;;39.6;;
69636;SDS011;56860;51.144;16.954;2024-03-08T00:25:58;22.7;;;42.4;;
69636;SDS011;56860;51.144;16.954;2024-03-08T00:26:58;22.7;;;42.4;;
69636;SDS011;56860;51.144;16.954;2024-03-08T00:27:58;22.7;;;42.4;;
69636;SDS011;56860;51.144;16.954;2024-03-08T00:28:58;23.4;;;39.8;;
69636;SDS011;56860;51.144;16.954;2024-03-08T00:29:58;23.4;;;39.8;;
69636;SDS011;56860;51.144;16.954;2024-03-08T00:30:58;23.4;;;39.8;;
69636;SDS011;56860;51.144;16.954;2024-03-08T00:31:58;23.9;;;44.7;;
69636;SDS011;56860;51.144;16.954;2024-03-08T00:32:58;23.9;;;44.7;;
69636;SDS011;56860;51.144;16.954;2024-03-08T00:33:58;23.9;;;44.7;;
69636;SDS011;56860;51.144;16.954;2024-03-08T00:34:58;23.3;;;42.4;;
69636;SDS011;56860;51.144;16.954;2024-03-08T00:35:58;23.3;;;42.4;;
69636;SDS011;56860;51.144;16.954;2024-03-08T00:36:58;23.3;;;42.4;;
69636;SDS011;56860;51.144;16.954;2024-03-08T00:37:58;24.7;;;47.1;;
69636;SDS011;56860;51.144;16.954;2024-03-08T00:38:58;24.7;;;47.1;;
69636;SDS011;56860;51.144;16.954;2024-03-08T00:39:58;24.7;;;47.1;;
69636;SDS011;56860;51.144;16.954;2024-03-08T00:40:58;24.6;;;44.8;;
69636;SDS011;56860;51.144;16.954;2024-03-08T00:41:58;24.6;;;44.8;;
69636;SDS011;56860;51.144;16.954;2024-03-08T00:42:58;24.6;;;44.8;;
69636;SDS011;56860;51.144;16.954;2024-03-08T00:43:58;24.9;;;44.9;;
69636;SDS011;56860;51.144;16.954;2024-03-08T00:44:58;24.9;;;44.9;;
69636;SDS011;56860;51.144;16.954;2024-03-08T00:45:58;24.9;;;44.9;;
69636;SDS011;56860;51.144;16.954;2024-03-08T00:46:58;24.8;;;46.4;;
69636;SDS011;56860;51.144;16.954;2024-03-08T00:47:58;24.8;;;46.4;;
69636;SDS011;56860;51.144;16.954;2024-03-08T00:48:58;24.8;;;46.4;;
69636;SDS011;56860;51.144;16.954;2024-03-08T00:49:58;23.7;;;47.7;;
69636;SDS011;56860;51.144;16.954;2024-03-08T00:50:58;23.7;;;47.7;;
69636;SDS011;56860;51.144;16.954;2024-03-08T00:51:58;23.7;;;47.7;;
69636;SDS011;56860;51.144;16.954;2024-03-08T00:52:58;24.7;;;45.5;;
69636;SDS011;56860;51.144;16.954;2024-03-08T00:53:58;24.7;;;45.5;;
69636;SDS011;56860;51.144;16.954;2024-03-08T00:54:58;24.7;;;45.5;;
69636;SDS011;56860;51.144;16.954;2024-03-08T00:55:58;24.4;;;45.1;;
69636;SDS011;56860;51.144;16.954;2024-03-08T00:56:58;24.4;;;45.1;;
69636;SDS011;56860;51.144;16.954;2024-03-08T00:57:58;24.4;;;45.1;;
69636;SDS011;56860;51.144;16.954;2024-03-08T00:58:58;25.1;;;46.9;;
69636;SDS011;56860;51.144;16.954;2024-03-08T00:59:58;25.1;;;46.9;;
69636;SDS011;56860;51.144;16.954;2024-03-08T01:00:58;25.1;;;46.9;;
69636;SDS011;56860;51.144;16.954;2024-03-08T01:01:58;23.5;;;42.9;;
69636;SDS011;56860;51.144;16.954;2024-03-08T01:02:58;23.5;;;42.9;;
69636;SDS011;56860;51.144;16.954;2024-03-08T01:03:58;23.5;;;42.9;;
69636;SDS011;56860;51.144;16.954;2024-03-08T01:04:58;25.7;;;49.4;;
69636;SDS011;56860;51.144;16.954;2024-03-08T01:05:58;25.7;;;49.4;;
69636;SDS011;56860;51.144;16.954;2024-03-08T01:06:58;25.7;;;49.4;;
69636;SDS011;56860;51.144;16.954;2024-03-08T01:07:58;24.5;;;43.9;;
69636;SDS011;56860;51.144;16.954;2024-03-08T01:08:58;24.5;;;43.9;;
69636;SDS011;56860;51.144;16.954;2024-03-08T01:09:58;24.5;;;43.9;;
69636;SDS011;56860;51.144;16.954;2024-03-08T01:10:58;24.7;;;46.1;;
69636;SDS011;56860;51.144;16.954;2024-03-08T01:11:58;24.7;;;46.1;;
69636;SDS011;56860;51.144;16.954;2024-03-08T01:12:58;24.7;;;46.1;;
69636;SDS011;56860;51.144;16.954;2024-03-08T01:13:58;25.7;;;48.4;;
69636;SDS011;56860;51.144;16.954;2024-03-08T01:14:58;25.7;;;48.4;;
69636;SDS011;56860;51.144;16.954;2024-03-08T01:15:58;25.7;;;48.4;;
69636;SDS011;56860;51.144;16.954;2024-03-08T01:16:58;26.2;;;50.5;;
69636;SDS011;56860;51.144;16.954;2024-03-08T01:17:58;26.2;;;50.5;;
69636;SDS011;56860;51.144;16.954;2024-03-08T01:18:58;26.2;;;50.5;;
69636;SDS011;56860;51.144;16.954;2024-03-08T01:19:58;24.8;;;44.4;;
69636;SDS011;56860;51.144;16.954;2024-03-08T01:20:58;24.8;;;44.4;;
69636;SDS011;56860;51.144;16.954;2024-03-08T01:21:58;24.8;;;44.4;;
69636;SDS011;56860;51.144;16.954;2024-03-08T01:22:58;25.0;;;48.3;;
69636;SDS011;56860;51.144;16.954;2024-03-08T01:23:58;25.0;;;48.3;;
69636;SDS011;56860;51.144;16.954;2024-03-08T01:24:58;25.0;;;48.3;;
69636;SDS011;56860;51.144;16.954;2024-03-08T01:25:58;23.7;;;44.0;;
69636;SDS011;56860;51.144;16.954;2024-03-08T01:26:58;23.7;;;44.0;;
69636;SDS011;56860;51.144;16.954;2024-03-08T01:27:58;23.7;;;44.0;;
69636;SDS011;56860;51.144;16.954;2024-03-08T01:28:58;25.3;;;44.9;;
69636;SDS011;56860;51.144;16.954;2024-03-08T01:29:58;25.3;;;44.9;;
69636;SDS011;56860;51.144;16.954;2024-03-08T01:30:58;25.3;;;44.9;;
69636;SDS011;56860;51.144;16.954;2024-03-08T01:31:58;24.5;;;41.6;;
69636;SDS011;56860;51.144;16.954;2024-03-08T01:32:58;24.5;;;41.6;;
69636;SDS011;56860;51.144;16.954;2024-03-08T01:33:58;24.5;;;41.6;;
69636;SDS011;56860;51.144;16.954;2024-03-08T01:34:58;24.2;;;45.6;;
69636;SDS011;56860;51.144;16.954;2024-03-08T01:35:58;24.2;;;45.6;;
69636;SDS011;56860;51.144;16.954;2024-03-08T01:36:58;24.2;;;45.6;;
69636;SDS011;56860;51.144;16.954;2024-03-08T01:37:58;25.7;;;49.3;;
69636;SDS011;56860;51.144;16.954;2024-03-08T01:38:58;25.2;;;47.8;;
69636;SDS011;56860;51.144;16.954;2024-03-08T01:39:58;25.2;;;47.8;;
69636;SDS011;56860;51.144;16.954;2024-03-08T01:40:58;25.6;;;45.4;;
69636;SDS011;56860;51.144;16.954;2024-03-08T01:41:58;25.6;;;45.5;;
69636;SDS011;56860;51.144;16.954;2024-03-08T01:43:14;25.6;;;45.5;;
69636;SDS011;56860;51.144;16.954;2024-03-08T01:43:58;19.8;;;32.3;;
69636;SDS011;56860;51.144;16.954;2024-03-08T01:44:58;24.1;;;47.4;;
69636;SDS011;56860;51.144;16.954;2024-03-08T01:45:58;24.1;;;47.4;;
69636;SDS011;56860;51.144;16.954;2024-03-08T01:46:58;21.9;;;41.9;;
69636;SDS011;56860;51.144;16.954;2024-03-08T01:47:58;25.2;;;53.9;;
69636;SDS011;56860;51.144;16.954;2024-03-08T01:48:58;25.2;;;53.9;;
69636;SDS011;56860;51.144;16.954;2024-03-08T01:49:58;25.2;;;53.9;;
69636;SDS011;56860;51.144;16.954;2024-03-08T01:50:58;25.7;;;46.6;;
69636;SDS011;56860;51.144;16.954;2024-03-08T01:51:58;25.7;;;46.6;;
69636;SDS011;56860;51.144;16.954;2024-03-08T01:52:58;25.7;;;46.6;;
69636;SDS011;56860;51.144;16.954;2024-03-08T01:53:58;25.1;;;48.7;;
69636;SDS011;56860;51.144;16.954;2024-03-08T01:54:58;25.1;;;48.7;;
69636;SDS011;56860;51.144;16.954;2024-03-08T01:55:58;25.1;;;48.7;;
69636;SDS011;56860;51.144;16.954;2024-03-08T01:56:58;25.9;;;47.5;;
69636;SDS011;56860;51.144;16.954;2024-03-08T01:57:58;25.9;;;47.5;;
69636;SDS011;56860;51.144;16.954;2024-03-08T01:58:58;25.9;;;47.5;;
69636;SDS011;56860;51.144;16.954;2024-03-08T01:59:58;25.3;;;48.5;;
69636;SDS011;56860;51.144;16.954;2024-03-08T02:00:58;25.3;;;48.5;;
69636;SDS011;56860;51.144;16.954;2024-03-08T02:01:59;25.3;;;48.5;;
69636;SDS011;56860;51.144;16.954;2024-03-08T02:02:58;27.1;;;48.2;;
69636;SDS011;56860;51.144;16.954;2024-03-08T02:03:58;27.1;;;48.2;;
69636;SDS011;56860;51.144;16.954;2024-03-08T02:04:58;27.1;;;48.2;;
69636;SDS011;56860;51.144;16.954;2024-03-08T02:05:58;26.4;;;51.1;;
69636;SDS011;56860;51.144;16.954;2024-03-08T02:06:58;26.4;;;51.1;;
69636;SDS011;56860;51.144;16.954;2024-03-08T02:07:58;26.4;;;51.1;;
69636;SDS011;56860;51.144;16.954;2024-03-08T02:08:58;25.5;;;47.1;;
69636;SDS011;56860;51.144;16.954;2024-03-08T02:09:58;25.5;;;47.1;;
69636;SDS011;56860;51.144;16.954;2024-03-08T02:10:58;25.5;;;47.1;;
69636;SDS011;56860;51.144;16.954;2024-03-08T02:11:58;26.8;;;47.4;;
69636;SDS011;56860;51.144;16.954;2024-03-08T02:12:58;26.8;;;47.4;;
69636;SDS011;56860;51.144;16.954;2024-03-08T02:13:58;26.8;;;47.4;;
69636;SDS011;56860;51.144;16.954;2024-03-08T02:14:58;25.6;;;45.2;;
69636;SDS011;56860;51.144;16.954;2024-03-08T02:15:58;25.6;;;45.2;;
69636;SDS011;56860;51.144;16.954;2024-03-08T02:17:00;25.6;;;45.2;;
69636;SDS011;56860;51.144;16.954;2024-03-08T02:17:58;25.7;;;50.4;;
69636;SDS011;56860;51.144;16.954;2024-03-08T02:18:58;25.7;;;50.4;;
69636;SDS011;56860;51.144;16.954;2024-03-08T02:19:58;25.7;;;50.4;;
69636;SDS011;56860;51.144;16.954;2024-03-08T02:20:58;25.8;;;49.3;;
69636;SDS011;56860;51.144;16.954;2024-03-08T02:21:58;25.8;;;49.3;;
69636;SDS011;56860;51.144;16.954;2024-03-08T02:22:58;25.8;;;49.3;;
69636;SDS011;56860;51.144;16.954;2024-03-08T02:23:58;26.2;;;50.0;;
69636;SDS011;56860;51.144;16.954;2024-03-08T02:24:58;26.2;;;50.0;;
69636;SDS011;56860;51.144;16.954;2024-03-08T02:25:58;26.2;;;50.0;;
69636;SDS011;56860;51.144;16.954;2024-03-08T02:26:58;27.3;;;51.3;;
69636;SDS011;56860;51.144;16.954;2024-03-08T02:27:58;27.3;;;51.3;;
69636;SDS011;56860;51.144;16.954;2024-03-08T02:28:58;27.3;;;51.3;;
69636;SDS011;56860;51.144;16.954;2024-03-08T02:29:58;26.1;;;48.9;;
69636;SDS011;56860;51.144;16.954;2024-03-08T02:30:58;26.1;;;48.9;;
69636;SDS011;56860;51.144;16.954;2024-03-08T02:31:58;26.1;;;48.9;;
69636;SDS011;56860;51.144;16.954;2024-03-08T02:32:58;25.0;;;49.0;;
69636;SDS011;56860;51.144;16.954;2024-03-08T02:35:58;27.4;;;47.2;;
69636;SDS011;56860;51.144;16.954;2024-03-08T02:36:58;26.5;;;46.6;;
69636;SDS011;56860;51.144;16.954;2024-03-08T02:37:58;26.5;;;46.6;;
69636;SDS011;56860;51.144;16.954;2024-03-08T02:38:58;27.0;;;51.7;;
69636;SDS011;56860;51.144;16.954;2024-03-08T02:39:58;26.5;;;51.2;;
69636;SDS011;56860;51.144;16.954;2024-03-08T02:40:58;26.5;;;51.2;;
69636;SDS011;56860;51.144;16.954;2024-03-08T02:41:58;26.2;;;49.3;;
69636;SDS011;56860;51.144;16.954;2024-03-08T02:42:58;25.7;;;49.9;;
69636;SDS011;56860;51.144;16.954;2024-03-08T02:43:58;25.7;;;49.9;;
69636;SDS011;56860;51.144;16.954;2024-03-08T02:44:58;25.3;;;46.6;;
69636;SDS011;56860;51.144;16.954;2024-03-08T02:45:58;25.4;;;45.2;;
69636;SDS011;56860;51.144;16.954;2024-03-08T02:46:58;25.4;;;45.2;;
69636;SDS011;56860;51.144;16.954;2024-03-08T02:47:58;25.6;;;48.7;;
69636;SDS011;56860;51.144;16.954;2024-03-08T02:48:58;25.4;;;46.0;;
69636;SDS011;56860;51.144;16.954;2024-03-08T02:49:58;25.4;;;46.0;;
69636;SDS011;56860;51.144;16.954;2024-03-08T02:50:58;25.2;;;44.2;;
69636;SDS011;56860;51.144;16.954;2024-03-08T02:51:58;24.9;;;42.6;;
69636;SDS011;56860;51.144;16.954;2024-03-08T02:52:58;24.9;;;42.6;;
69636;SDS011;56860;51.144;16.954;2024-03-08T02:53:58;17.0;;;25.4;;
69636;SDS011;56860;51.144;16.954;2024-03-08T02:54:58;24.4;;;45.3;;
69636;SDS011;56860;51.144;16.954;2024-03-08T02:55:58;24.4;;;45.3;;
69636;SDS011;56860;51.144;16.954;2024-03-08T02:56:58;22.1;;;30.9;;
69636;SDS011;56860;51.144;16.954;2024-03-08T02:57:58;26.8;;;47.9;;
69636;SDS011;56860;51.144;16.954;2024-03-08T02:58:58;26.8;;;47.9;;
69636;SDS011;56860;51.144;16.954;2024-03-08T02:59:58;26.8;;;47.9;;
69636;SDS011;56860;51.144;16.954;2024-03-08T03:00:58;25.4;;;46.1;;
69636;SDS011;56860;51.144;16.954;2024-03-08T03:01:58;25.4;;;46.1;;
69636;SDS011;56860;51.144;16.954;2024-03-08T03:02:58;25.4;;;46.1;;
69636;SDS011;56860;51.144;16.954;2024-03-08T03:03:58;25.1;;;46.6;;
69636;SDS011;56860;51.144;16.954;2024-03-08T03:04:58;25.1;;;46.6;;
69636;SDS011;56860;51.144;16.954;2024-03-08T03:05:58;25.1;;;46.6;;
69636;SDS011;56860;51.144;16.954;2024-03-08T03:06:58;24.8;;;45.0;;
69636;SDS011;56860;51.144;16.954;2024-03-08T03:07:58;24.8;;;45.0;;
69636;SDS011;56860;51.144;16.954;2024-03-08T03:08:58;24.8;;;45.0;;
69636;SDS011;56860;51.144;16.954;2024-03-08T03:09:58;25.1;;;48.6;;
69636;SDS011;56860;51.144;16.954;2024-03-08T03:10:58;25.1;;;48.6;;
69636;SDS011;56860;51.144;16.954;2024-03-08T03:11:58;25.1;;;48.6;;
69636;SDS011;56860;51.144;16.954;2024-03-08T03:12:58;27.2;;;49.3;;
69636;SDS011;56860;51.144;16.954;2024-03-08T03:13:58;27.2;;;49.3;;
69636;SDS011;56860;51.144;16.954;2024-03-08T03:14:58;27.2;;;49.3;;
69636;SDS011;56860;51.144;16.954;2024-03-08T03:15:58;27.5;;;45.9;;
69636;SDS011;56860;51.144;16.954;2024-03-08T03:16:58;27.5;;;45.9;;
69636;SDS011;56860;51.144;16.954;2024-03-08T03:17:58;27.5;;;45.9;;
69636;SDS011;56860;51.144;16.954;2024-03-08T03:18:58;34.7;;;61.6;;
69636;SDS011;56860;51.144;16.954;2024-03-08T03:19:58;34.7;;;61.6;;
69636;SDS011;56860;51.144;16.954;2024-03-08T03:20:58;34.7;;;61.6;;
69636;SDS011;56860;51.144;16.954;2024-03-08T03:21:58;37.2;;;66.1;;
69636;SDS011;56860;51.144;16.954;2024-03-08T03:22:58;37.2;;;66.1;;
69636;SDS011;56860;51.144;16.954;2024-03-08T03:23:58;37.2;;;66.1;;
69636;SDS011;56860;51.144;16.954;2024-03-08T03:24:58;28.1;;;50.7;;
69636;SDS011;56860;51.144;16.954;2024-03-08T03:25:58;28.1;;;50.7;;
69636;SDS011;56860;51.144;16.954;2024-03-08T03:26:58;28.1;;;50.7;;
69636;SDS011;56860;51.144;16.954;2024-03-08T03:27:58;27.7;;;49.7;;
69636;SDS011;56860;51.144;16.954;2024-03-08T03:28:58;27.7;;;49.7;;
69636;SDS011;56860;51.144;16.954;2024-03-08T03:29:58;27.7;;;49.7;;
69636;SDS011;56860;51.144;16.954;2024-03-08T03:30:58;29.0;;;52.7;;
69636;SDS011;56860;51.144;16.954;2024-03-08T03:31:58;29.0;;;52.7;;
69636;SDS011;56860;51.144;16.954;2024-03-08T03:32:58;29.0;;;52.7;;
69636;SDS011;56860;51.144;16.954;2024-03-08T03:33:58;24.9;;;48.4;;
69636;SDS011;56860;51.144;16.954;2024-03-08T03:34:58;24.9;;;48.4;;
69636;SDS011;56860;51.144;16.954;2024-03-08T03:35:58;24.9;;;48.4;;
69636;SDS011;56860;51.144;16.954;2024-03-08T03:36:58;26.0;;;48.0;;
69636;SDS011;56860;51.144;16.954;2024-03-08T03:37:58;26.0;;;48.0;;
69636;SDS011;56860;51.144;16.954;2024-03-08T03:38:58;26.0;;;48.0;;
69636;SDS011;56860;51.144;16.954;2024-03-08T03:39:58;25.6;;;45.8;;
69636;SDS011;56860;51.144;16.954;2024-03-08T03:40:58;25.6;;;45.8;;
69636;SDS011;56860;51.144;16.954;2024-03-08T03:41:58;25.6;;;45.8;;
69636;SDS011;56860;51.144;16.954;2024-03-08T03:42:58;26.4;;;48.6;;
69636;SDS011;56860;51.144;16.954;2024-03-08T03:43:58;26.4;;;48.6;;
69636;SDS011;56860;51.144;16.954;2024-03-08T03:44:58;26.4;;;48.6;;
69636;SDS011;56860;51.144;16.954;2024-03-08T03:45:58;25.9;;;46.7;;
69636;SDS011;56860;51.144;16.954;2024-03-08T03:46:58;25.9;;;46.7;;
69636;SDS011;56860;51.144;16.954;2024-03-08T03:47:58;25.9;;;46.7;;
69636;SDS011;56860;51.144;16.954;2024-03-08T03:48:58;26.5;;;49.9;;
69636;SDS011;56860;51.144;16.954;2024-03-08T03:49:58;26.5;;;49.9;;
69636;SDS011;56860;51.144;16.954;2024-03-08T03:50:58;26.5;;;49.9;;
69636;SDS011;56860;51.144;16.954;2024-03-08T03:51:58;25.4;;;44.8;;
69636;SDS011;56860;51.144;16.954;2024-03-08T03:52:58;25.4;;;44.8;;
69636;SDS011;56860;51.144;16.954;2024-03-08T03:53:58;25.4;;;44.8;;
69636;SDS011;56860;51.144;16.954;2024-03-08T03:54:58;25.0;;;44.7;;
69636;SDS011;56860;51.144;16.954;2024-03-08T03:55:58;25.0;;;44.7;;
69636;SDS011;56860;51.144;16.954;2024-03-08T03:56:58;25.0;;;44.7;;
69636;SDS011;56860;51.144;16.954;2024-03-08T03:57:58;26.2;;;50.2;;
69636;SDS011;56860;51.144;16.954;2024-03-08T03:58:58;26.2;;;50.2;;
69636;SDS011;56860;51.144;16.954;2024-03-08T03:59:58;26.2;;;50.2;;
69636;SDS011;56860;51.144;16.954;2024-03-08T04:00:58;25.4;;;45.9;;
69636;SDS011;56860;51.144;16.954;2024-03-08T04:01:58;25.4;;;45.9;;
69636;SDS011;56860;51.144;16.954;2024-03-08T04:02:58;25.4;;;45.9;;
69636;SDS011;56860;51.144;16.954;2024-03-08T04:03:58;24.9;;;48.8;;
69636;SDS011;56860;51.144;16.954;2024-03-08T04:04:58;24.9;;;48.8;;
69636;SDS011;56860;51.144;16.954;2024-03-08T04:05:58;24.9;;;48.8;;
69636;SDS011;56860;51.144;16.954;2024-03-08T04:06:58;24.7;;;46.9;;
69636;SDS011;56860;51.144;16.954;2024-03-08T04:07:58;24.7;;;46.9;;
69636;SDS011;56860;51.144;16.954;2024-03-08T04:08:58;24.7;;;46.9;;
69636;SDS011;56860;51.144;16.954;2024-03-08T04:09:58;25.6;;;48.1;;
69636;SDS011;56860;51.144;16.954;2024-03-08T04:10:58;25.6;;;48.1;;
69636;SDS011;56860;51.144;16.954;2024-03-08T04:11:58;25.6;;;48.1;;
69636;SDS011;56860;51.144;16.954;2024-03-08T04:12:58;25.5;;;44.9;;
69636;SDS011;56860;51.144;16.954;2024-03-08T04:13:58;25.5;;;44.9;;
69636;SDS011;56860;51.144;16.954;2024-03-08T04:14:58;25.5;;;44.9;;
69636;SDS011;56860;51.144;16.954;2024-03-08T04:15:58;24.5;;;47.9;;
69636;SDS011;56860;51.144;16.954;2024-03-08T04:16:58;24.5;;;47.9;;
69636;SDS011;56860;51.144;16.954;2024-03-08T04:17:58;24.5;;;47.9;;
69636;SDS011;56860;51.144;16.954;2024-03-08T04:18:58;25.1;;;47.4;;
69636;SDS011;56860;51.144;16.954;2024-03-08T04:19:58;25.1;;;47.4;;
69636;SDS011;56860;51.144;16.954;2024-03-08T04:20:58;25.1;;;47.4;;
69636;SDS011;56860;51.144;16.954;2024-03-08T04:21:58;25.6;;;44.2;;
69636;SDS011;56860;51.144;16.954;2024-03-08T04:22:58;25.6;;;44.2;;
69636;SDS011;56860;51.144;16.954;2024-03-08T04:23:58;25.6;;;44.2;;
69636;SDS011;56860;51.144;16.954;2024-03-08T04:24:58;24.8;;;44.2;;
69636;SDS011;56860;51.144;16.954;2024-03-08T04:25:58;24.8;;;44.2;;
69636;SDS011;56860;51.144;16.954;2024-03-08T04:26:58;24.8;;;44.2;;
69636;SDS011;56860;51.144;16.954;2024-03-08T04:27:58;26.8;;;47.0;;
69636;SDS011;56860;51.144;16.954;2024-03-08T04:28:58;26.8;;;47.0;;
69636;SDS011;56860;51.144;16.954;2024-03-08T04:29:58;26.8;;;47.0;;
69636;SDS011;56860;51.144;16.954;2024-03-08T04:30:58;25.8;;;47.9;;
69636;SDS011;56860;51.144;16.954;2024-03-08T04:31:58;24.8;;;46.2;;
69636;SDS011;56860;51.144;16.954;2024-03-08T04:32:58;24.8;;;46.2;;
69636;SDS011;56860;51.144;16.954;2024-03-08T04:33:58;25.9;;;45.6;;
69636;SDS011;56860;51.144;16.954;2024-03-08T04:34:58;25.5;;;47.0;;
69636;SDS011;56860;51.144;16.954;2024-03-08T04:35:58;25.5;;;47.0;;
69636;SDS011;56860;51.144;16.954;2024-03-08T04:36:58;25.3;;;43.3;;
69636;SDS011;56860;51.144;16.954;2024-03-08T04:37:58;24.7;;;42.3;;
69636;SDS011;56860;51.144;16.954;2024-03-08T04:38:58;24.7;;;42.3;;
69636;SDS011;56860;51.144;16.954;2024-03-08T04:39:58;25.6;;;45.3;;
69636;SDS011;56860;51.144;16.954;2024-03-08T04:40:58;25.2;;;44.8;;
69636;SDS011;56860;51.144;16.954;2024-03-08T04:41:59;25.2;;;44.8;;
69636;SDS011;56860;51.144;16.954;2024-03-08T04:42:58;25.4;;;48.0;;
69636;SDS011;56860;51.144;16.954;2024-03-08T04:43:58;24.7;;;47.0;;
69636;SDS011;56860;51.144;16.954;2024-03-08T04:44:59;24.7;;;47.0;;
69636;SDS011;56860;51.144;16.954;2024-03-08T04:45:58;24.7;;;47.0;;
69636;SDS011;56860;51.144;16.954;2024-03-08T04:46:58;25.8;;;46.5;;
69636;SDS011;56860;51.144;16.954;2024-03-08T04:47:58;25.8;;;46.5;;
69636;SDS011;56860;51.144;16.954;2024-03-08T04:48:58;25.8;;;46.5;;
69636;SDS011;56860;51.144;16.954;2024-03-08T04:49:58;25.3;;;45.2;;
69636;SDS011;56860;51.144;16.954;2024-03-08T04:50:58;25.3;;;45.2;;
69636;SDS011;56860;51.144;16.954;2024-03-08T04:51:58;25.3;;;45.2;;
69636;SDS011;56860;51.144;16.954;2024-03-08T04:52:58;26.3;;;49.8;;
69636;SDS011;56860;51.144;16.954;2024-03-08T04:53:58;26.3;;;49.8;;
69636;SDS011;56860;51.144;16.954;2024-03-08T04:54:58;26.3;;;49.8;;
69636;SDS011;56860;51.144;16.954;2024-03-08T04:55:58;25.6;;;49.2;;
69636;SDS011;56860;51.144;16.954;2024-03-08T04:56:58;25.6;;;49.2;;
69636;SDS011;56860;51.144;16.954;2024-03-08T04:57:58;25.6;;;49.2;;
69636;SDS011;56860;51.144;16.954;2024-03-08T04:58:58;26.4;;;45.3;;
69636;SDS011;56860;51.144;16.954;2024-03-08T04:59:58;26.4;;;45.3;;
69636;SDS011;56860;51.144;16.954;2024-03-08T05:00:58;26.4;;;45.3;;
69636;SDS011;56860;51.144;16.954;2024-03-08T05:01:58;25.1;;;41.5;;
69636;SDS011;56860;51.144;16.954;2024-03-08T05:02:58;25.1;;;41.5;;
69636;SDS011;56860;51.144;16.954;2024-03-08T05:03:58;25.1;;;41.5;;
69636;SDS011;56860;51.144;16.954;2024-03-08T05:04:58;26.4;;;47.1;;
69636;SDS011;56860;51.144;16.954;2024-03-08T05:05:58;26.4;;;47.1;;
69636;SDS011;56860;51.144;16.954;2024-03-08T05:06:58;26.4;;;47.1;;
69636;SDS011;56860;51.144;16.954;2024-03-08T05:07:58;26.9;;;46.9;;
69636;SDS011;56860;51.144;16.954;2024-03-08T05:08:58;26.9;;;46.9;;
69636;SDS011;56860;51.144;16.954;2024-03-08T05:09:58;26.9;;;46.9;;
69636;SDS011;56860;51.144;16.954;2024-03-08T05:10:58;26.0;;;47.6;;
69636;SDS011;56860;51.144;16.954;2024-03-08T05:11:58;26.0;;;47.6;;
69636;SDS011;56860;51.144;16.954;2024-03-08T05:12:58;26.0;;;47.6;;
69636;SDS011;56860;51.144;16.954;2024-03-08T05:13:58;25.8;;;47.4;;
69636;SDS011;56860;51.144;16.954;2024-03-08T05:14:58;25.8;;;47.4;;
69636;SDS011;56860;51.144;16.954;2024-03-08T05:15:58;25.8;;;47.4;;
69636;SDS011;56860;51.144;16.954;2024-03-08T05:16:58;26.6;;;49.2;;
69636;SDS011;56860;51.144;16.954;2024-03-08T05:17:58;26.6;;;49.2;;
69636;SDS011;56860;51.144;16.954;2024-03-08T05:18:58;26.6;;;49.2;;
69636;SDS011;56860;51.144;16.954;2024-03-08T05:19:58;27.5;;;53.0;;
69636;SDS011;56860;51.144;16.954;2024-03-08T05:20:58;27.5;;;53.0;;
69636;SDS011;56860;51.144;16.954;2024-03-08T05:21:58;27.5;;;53.0;;
69636;SDS011;56860;51.144;16.954;2024-03-08T05:22:58;26.7;;;50.3;;
69636;SDS011;56860;51.144;16.954;2024-03-08T05:23:58;26.7;;;50.3;;
69636;SDS011;56860;51.144;16.954;2024-03-08T05:24:58;26.7;;;50.3;;
69636;SDS011;56860;51.144;16.954;2024-03-08T05:25:58;25.8;;;47.4;;
69636;SDS011;56860;51.144;16.954;2024-03-08T05:26:58;25.8;;;47.4;;
69636;SDS011;56860;51.144;16.954;2024-03-08T05:27:58;25.8;;;47.4;;
69636;SDS011;56860;51.144;16.954;2024-03-08T05:28:58;26.2;;;49.4;;
69636;SDS011;56860;51.144;16.954;2024-03-08T05:29:58;26.2;;;49.4;;
69636;SDS011;56860;51.144;16.954;2024-03-08T05:30:58;26.2;;;49.4;;
69636;SDS011;56860;51.144;16.954;2024-03-08T05:31:58;26.5;;;50.8;;
69636;SDS011;56860;51.144;16.954;2024-03-08T05:32:58;26.5;;;50.8;;
69636;SDS011;56860;51.144;16.954;2024-03-08T05:33:58;26.5;;;50.8;;
69636;SDS011;56860;51.144;16.954;2024-03-08T05:34:58;27.7;;;47.2;;
69636;SDS011;56860;51.144;16.954;2024-03-08T05:35:58;27.7;;;47.2;;
69636;SDS011;56860;51.144;16.954;2024-03-08T05:36:58;27.7;;;47.2;;
69636;SDS011;56860;51.144;16.954;2024-03-08T05:37:58;25.8;;;48.0;;
69636;SDS011;56860;51.144;16.954;2024-03-08T05:38:58;25.8;;;48.0;;
69636;SDS011;56860;51.144;16.954;2024-03-08T05:39:58;25.8;;;48.0;;
69636;SDS011;56860;51.144;16.954;2024-03-08T05:40:58;26.4;;;48.2;;
69636;SDS011;56860;51.144;16.954;2024-03-08T05:41:58;26.4;;;48.2;;
69636;SDS011;56860;51.144;16.954;2024-03-08T05:42:58;26.4;;;48.2;;
69636;SDS011;56860;51.144;16.954;2024-03-08T05:43:58;26.4;;;49.1;;
69636;SDS011;56860;51.144;16.954;2024-03-08T05:44:58;26.4;;;49.1;;
69636;SDS011;56860;51.144;16.954;2024-03-08T05:45:58;26.4;;;49.1;;
69636;SDS011;56860;51.144;16.954;2024-03-08T05:46:58;25.3;;;45.0;;
69636;SDS011;56860;51.144;16.954;2024-03-08T05:47:58;25.3;;;45.0;;
69636;SDS011;56860;51.144;16.954;2024-03-08T05:48:58;25.3;;;45.0;;
69636;SDS011;56860;51.144;16.954;2024-03-08T05:49:58;26.1;;;47.2;;
69636;SDS011;56860;51.144;16.954;2024-03-08T05:50:58;26.1;;;47.2;;
69636;SDS011;56860;51.144;16.954;2024-03-08T05:51:58;26.1;;;47.2;;
69636;SDS011;56860;51.144;16.954;2024-03-08T05:52:58;26.1;;;49.5;;
69636;SDS011;56860;51.144;16.954;2024-03-08T05:53:58;26.1;;;49.5;;
69636;SDS011;56860;51.144;16.954;2024-03-08T05:54:58;26.1;;;49.5;;
69636;SDS011;56860;51.144;16.954;2024-03-08T05:55:58;26.0;;;46.1;;
69636;SDS011;56860;51.144;16.954;2024-03-08T05:56:58;26.0;;;46.1;;
69636;SDS011;56860;51.144;16.954;2024-03-08T05:57:58;26.0;;;46.1;;